createdAt,value
2023-05-07T00:04:54.365Z,11.70
2023-05-07T00:09:58.426Z,11.70
2023-05-07T00:15:01.180Z,11.60
2023-05-07T00:20:04.594Z,11.60
2023-05-07T00:25:09.618Z,11.50
2023-05-07T00:30:13.448Z,11.50
2023-05-07T00:35:16.269Z,11.50
2023-05-07T00:40:20.480Z,11.40
2023-05-07T00:45:23.247Z,11.40
2023-05-07T00:50:26.244Z,11.40
2023-05-07T00:55:31.223Z,11.50
2023-05-07T01:00:33.988Z,11.30
2023-05-07T01:05:37.068Z,11.40
2023-05-07T01:10:44.009Z,11.50
2023-05-07T01:15:47.304Z,11.50
2023-05-07T01:20:50.029Z,11.40
2023-05-07T01:25:57.050Z,11.20
2023-05-07T01:31:03.798Z,11.20
2023-05-07T01:36:09.563Z,11.30
2023-05-07T01:41:14.163Z,11.30
2023-05-07T01:46:17.686Z,11.20
2023-05-07T01:51:22.226Z,11.20
2023-05-07T01:56:26.937Z,11.20
2023-05-07T02:01:29.679Z,11.30
2023-05-07T02:06:32.763Z,11.20
2023-05-07T02:11:36.773Z,11.30
2023-05-07T02:16:39.491Z,11.30
2023-05-07T02:21:42.216Z,11.20
2023-05-07T02:26:46.278Z,11.10
2023-05-07T02:31:51.656Z,11.20
2023-05-07T02:36:54.552Z,11.00
2023-05-07T02:41:58.626Z,10.80
2023-05-07T02:47:01.331Z,11.10
2023-05-07T02:52:04.167Z,11.10
2023-05-07T02:57:08.158Z,11.00
2023-05-07T03:02:11.177Z,11.00
2023-05-07T03:07:13.818Z,11.00
2023-05-07T03:12:17.820Z,11.00
2023-05-07T03:17:20.747Z,10.90
2023-05-07T03:22:23.435Z,10.80
2023-05-07T03:27:27.460Z,10.80
2023-05-07T03:32:30.264Z,10.70
2023-05-07T03:37:33.097Z,10.80
2023-05-07T03:42:37.179Z,10.70
2023-05-07T03:47:39.898Z,10.70
2023-05-07T03:52:42.588Z,10.70
2023-05-07T03:57:46.604Z,10.70
2023-05-07T04:02:49.441Z,10.70
2023-05-07T04:07:52.238Z,10.50
2023-05-07T04:12:56.329Z,10.50
2023-05-07T04:17:59.088Z,10.60
2023-05-07T04:23:01.799Z,10.80
2023-05-07T04:28:06.960Z,11.00
2023-05-07T04:33:09.710Z,11.10
2023-05-07T04:38:12.475Z,11.20
2023-05-07T04:43:17.035Z,11.50
2023-05-07T04:48:21.458Z,11.70
2023-05-07T04:53:24.289Z,11.70
2023-05-07T04:58:28.305Z,11.70
2023-05-07T05:03:31.197Z,11.60
2023-05-07T05:08:34.147Z,11.40
2023-05-07T05:13:38.143Z,11.30
2023-05-07T05:18:41.161Z,11.10
2023-05-07T05:23:43.890Z,11.30
2023-05-07T05:28:47.973Z,11.40
2023-05-07T05:33:50.633Z,11.70
2023-05-07T05:38:53.283Z,12.10
2023-05-07T05:43:57.249Z,12.60
2023-05-07T05:49:00.082Z,13.00
2023-05-07T05:54:02.820Z,13.30
2023-05-07T05:59:06.854Z,13.20
2023-05-07T06:04:09.710Z,13.00
2023-05-07T06:09:12.691Z,13.00
2023-05-07T06:14:16.688Z,12.80
2023-05-07T06:19:24.032Z,12.80
2023-05-07T06:24:26.732Z,12.60
2023-05-07T06:29:33.684Z,12.70
2023-05-07T06:34:36.329Z,12.80
2023-05-07T06:39:39.012Z,12.60
2023-05-07T06:44:42.952Z,12.40
2023-05-07T06:49:45.618Z,12.00
2023-05-07T06:54:48.742Z,12.10
2023-05-07T06:59:52.758Z,12.10
2023-05-07T07:04:55.539Z,12.10
2023-05-07T07:09:58.212Z,12.20
2023-05-07T07:15:03.372Z,12.10
2023-05-07T07:20:07.766Z,12.20
2023-05-07T07:25:12.068Z,12.40
2023-05-07T07:30:16.257Z,12.70
2023-05-07T07:35:19.148Z,12.70
2023-05-07T07:40:21.921Z,12.70
2023-05-07T07:45:25.956Z,12.80
2023-05-07T07:50:43.619Z,12.80
2023-05-07T07:55:48.327Z,12.80
2023-05-07T08:00:52.303Z,12.70
2023-05-07T08:05:54.953Z,12.80
2023-05-07T08:10:57.658Z,12.80
2023-05-07T08:16:01.621Z,12.80
2023-05-07T08:21:04.517Z,13.10
2023-05-07T08:26:07.251Z,13.20
2023-05-07T08:31:11.326Z,13.30
2023-05-07T08:36:14.018Z,13.60
2023-05-07T08:41:16.809Z,13.90
2023-05-07T08:46:22.582Z,14.10
2023-05-07T08:51:25.357Z,14.40
2023-05-07T08:56:28.018Z,14.40
2023-05-07T09:01:32.227Z,14.20
2023-05-07T09:06:35.623Z,13.70
2023-05-07T09:11:38.286Z,14.10
2023-05-07T09:16:42.396Z,14.80
2023-05-07T09:21:45.092Z,14.80
2023-05-07T09:26:48.088Z,14.50
2023-05-07T09:31:52.124Z,14.50
2023-05-07T09:36:55.871Z,14.70
2023-05-07T09:41:59.466Z,14.70
2023-05-07T09:47:06.154Z,14.20
2023-05-07T09:52:10.828Z,14.90
2023-05-07T09:57:15.520Z,15.40
2023-05-07T10:02:21.237Z,15.10
2023-05-07T10:07:24.671Z,15.20
2023-05-07T10:12:28.186Z,16.20
2023-05-07T10:17:32.832Z,17.20
2023-05-07T10:22:40.325Z,17.20
2023-05-07T10:27:45.409Z,16.60
2023-05-07T10:32:52.652Z,16.50
2023-05-07T10:37:55.591Z,15.80
2023-05-07T10:43:00.337Z,16.30
2023-05-07T10:48:27.905Z,17.30
2023-05-07T10:53:32.000Z,17.90
2023-05-07T10:58:37.875Z,18.10
2023-05-07T11:04:18.360Z,18.50
2023-05-07T11:09:21.192Z,18.00
2023-05-07T11:14:47.930Z,17.50
2023-05-07T11:19:53.076Z,17.20
2023-05-07T11:24:55.806Z,17.00
2023-05-07T11:29:58.583Z,17.00
2023-05-07T11:35:03.238Z,17.40
2023-05-07T11:40:07.749Z,17.60
2023-05-07T11:45:11.737Z,17.30
2023-05-07T11:50:15.953Z,17.30
2023-05-07T11:55:20.823Z,17.40
2023-05-07T12:00:23.794Z,17.70
2023-05-07T12:05:28.036Z,17.80
2023-05-07T12:10:30.717Z,18.30
2023-05-07T12:15:33.537Z,18.40
2023-05-07T12:20:38.285Z,18.80
2023-05-07T12:25:44.113Z,19.10
2023-05-07T12:30:48.321Z,19.00
2023-05-07T12:35:52.343Z,18.90
2023-05-07T12:40:56.587Z,18.80
2023-05-07T12:46:02.068Z,19.60
2023-05-07T12:51:07.881Z,21.30
2023-05-07T12:56:10.965Z,22.10
2023-05-07T13:01:16.509Z,22.40
2023-05-07T13:06:20.792Z,21.40
2023-05-07T13:11:23.420Z,20.60
2023-05-07T13:16:26.219Z,20.20
2023-05-07T13:21:31.629Z,20.30
2023-05-07T13:26:34.271Z,20.60
2023-05-07T13:31:37.501Z,20.00
2023-05-07T13:36:42.934Z,20.20
2023-05-07T13:41:46.037Z,20.40
2023-05-07T13:46:48.715Z,19.90
2023-05-07T13:51:52.692Z,19.60
2023-05-07T13:56:55.363Z,20.40
2023-05-07T14:01:58.032Z,21.20
2023-05-07T14:07:02.064Z,21.30
2023-05-07T14:12:05.262Z,20.40
2023-05-07T14:17:09.372Z,19.60
2023-05-07T14:22:14.962Z,19.30
2023-05-07T14:27:18.179Z,20.00
2023-05-07T14:32:20.854Z,20.20
2023-05-07T14:37:25.627Z,19.80
2023-05-07T14:42:28.233Z,20.10
2023-05-07T14:47:30.948Z,19.90
2023-05-07T14:52:34.977Z,20.10
2023-05-07T14:57:37.677Z,19.80
2023-05-07T15:02:40.522Z,19.50
2023-05-07T15:07:45.683Z,19.10
2023-05-07T15:12:48.883Z,18.30
2023-05-07T15:17:51.645Z,18.10
2023-05-07T15:22:55.684Z,17.70
2023-05-07T15:27:58.618Z,17.50
2023-05-07T15:33:01.407Z,17.10
2023-05-07T15:38:06.483Z,16.90
2023-05-07T15:43:10.308Z,16.80
2023-05-07T15:48:13.013Z,17.00
2023-05-07T15:53:17.014Z,17.10
2023-05-07T15:58:21.063Z,17.10
2023-05-07T16:03:24.639Z,17.00
2023-05-07T16:08:28.806Z,16.80
2023-05-07T16:13:31.461Z,16.50
2023-05-07T16:18:35.825Z,16.30
2023-05-07T16:23:39.819Z,16.10
2023-05-07T16:28:42.492Z,16.10
2023-05-07T16:33:45.165Z,15.90
2023-05-07T16:38:49.151Z,15.30
2023-05-07T16:43:51.795Z,15.00
2023-05-07T16:48:54.551Z,15.30
2023-05-07T16:53:58.574Z,15.30
2023-05-07T16:59:01.203Z,15.40
2023-05-07T17:04:04.050Z,14.90
2023-05-07T17:09:09.397Z,14.40
2023-05-07T17:14:12.307Z,14.70
2023-05-07T17:19:15.069Z,15.50
2023-05-07T17:24:19.290Z,15.90
2023-05-07T17:29:22.118Z,16.00
2023-05-07T17:34:24.858Z,15.60
2023-05-07T17:39:28.894Z,15.20
2023-05-07T17:44:31.692Z,14.90
2023-05-07T17:49:35.094Z,14.40
2023-05-07T17:54:39.246Z,13.90
2023-05-07T17:59:41.926Z,13.60
2023-05-07T18:04:44.634Z,13.10
2023-05-07T18:09:48.592Z,12.80
2023-05-07T18:14:51.301Z,12.60
2023-05-07T18:19:55.137Z,12.30
2023-05-07T18:24:59.492Z,12.20
2023-05-07T18:30:02.746Z,11.90
2023-05-07T18:35:06.372Z,11.40
2023-05-07T18:40:11.759Z,11.00
2023-05-07T18:45:14.875Z,10.90
2023-05-07T18:50:17.530Z,10.60
2023-05-07T18:55:22.269Z,10.60
2023-05-07T19:00:25.081Z,10.30
2023-05-07T19:05:27.773Z,10.40
2023-05-07T19:10:31.812Z,10.30
2023-05-07T19:15:34.525Z,10.20
2023-05-07T19:20:37.176Z,10.00
2023-05-07T19:25:41.346Z,9.80
2023-05-07T19:30:44.419Z,9.80
2023-05-07T19:35:47.053Z,9.50
2023-05-07T19:40:51.164Z,9.60
2023-05-07T19:45:56.904Z,9.60
2023-05-07T19:51:00.232Z,9.60
2023-05-07T19:56:06.606Z,9.20
2023-05-07T20:01:09.425Z,9.30
2023-05-07T20:06:12.715Z,9.10
2023-05-07T20:11:16.973Z,8.90
2023-05-07T20:16:19.816Z,8.90
2023-05-07T20:21:22.685Z,9.10
2023-05-07T20:26:27.382Z,9.10
2023-05-07T20:31:34.017Z,9.20
2023-05-07T20:36:37.694Z,9.40
2023-05-07T20:41:41.691Z,9.70
2023-05-07T20:46:44.609Z,9.80
2023-05-07T20:51:47.291Z,9.80
2023-05-07T20:56:51.266Z,9.80
2023-05-07T21:01:54.476Z,9.70
2023-05-07T21:06:57.313Z,9.70
2023-05-07T21:12:01.567Z,9.40
2023-05-07T21:17:06.970Z,9.10
2023-05-07T21:22:10.059Z,9.00
2023-05-07T21:27:14.186Z,8.80
2023-05-07T21:32:16.940Z,8.70
2023-05-07T21:37:20.072Z,8.50
2023-05-07T21:42:24.177Z,8.40
2023-05-07T21:47:26.951Z,8.30
2023-05-07T21:52:29.761Z,8.40
2023-05-07T21:57:33.824Z,8.40
2023-05-07T22:02:36.930Z,8.30
2023-05-07T22:07:39.665Z,8.10
2023-05-07T22:12:43.634Z,8.10
2023-05-07T22:17:46.345Z,8.10
2023-05-07T22:22:52.205Z,8.20
2023-05-07T22:27:56.590Z,8.30
2023-05-07T22:32:59.232Z,8.30
2023-05-07T22:38:02.035Z,8.30
2023-05-07T22:43:06.154Z,8.20
2023-05-07T22:48:08.850Z,8.00
2023-05-07T22:53:11.508Z,7.90
2023-05-07T22:58:15.808Z,7.70
2023-05-07T23:03:18.536Z,7.80
2023-05-07T23:08:21.467Z,7.70
2023-05-07T23:13:25.557Z,7.90
2023-05-07T23:18:30.221Z,8.10
2023-05-07T23:23:35.132Z,8.30
2023-05-07T23:28:39.103Z,8.40
2023-05-07T23:33:41.752Z,8.40
2023-05-07T23:38:44.437Z,8.40
2023-05-07T23:43:48.369Z,8.20
2023-05-07T23:48:51.048Z,7.80
2023-05-07T23:53:53.785Z,7.40
2023-05-07T23:58:57.971Z,7.40
